Time;durP1;ratioP1;P1;durP2;ratioP2;P2;SDS_P1;SDS_P2;PMS_P1;PMS_P2;Temp;Humidity;BMP_temperature;BMP_pressure;BME280_temperature;BME280_humidity;BME280_pressure;Samples;Min_cycle;Max_cycle;Signal;HPM_P1;HPM_P2
2023/01/05 00:01:28;;;;;;;64.93;5.80;;;;;;;9.47;100.00;101599.81;5030917;28;20029;-38
2023/01/05 00:03:53;;;;;;;54.33;5.82;;;;;;;9.47;100.00;101599.81;5029596;28;20053;-38
2023/01/05 00:06:19;;;;;;;49.25;5.63;;;;;;;9.43;100.00;101597.44;5041117;28;20044;-38
2023/01/05 00:08:45;;;;;;;43.72;6.20;;;;;;;9.43;100.00;101600.13;5032444;28;20115;-37
2023/01/05 00:25:08;;;;;;;51.92;5.93;;;;;;;9.38;100.00;101575.56;5030785;28;20492;-37
2023/01/05 00:27:33;;;;;;;58.42;6.80;;;;;;;9.37;100.00;101573.88;5030827;28;20033;-37
2023/01/05 00:29:59;;;;;;;56.85;7.75;;;;;;;9.38;100.00;101574.72;5030522;28;20025;-38
2023/01/05 00:32:26;;;;;;;74.60;7.45;;;;;;;9.38;100.00;101575.56;5030322;28;20136;-38
2023/01/05 00:34:54;;;;;;;56.20;5.65;;;;;;;9.35;100.00;101572.34;5030482;28;20115;-37
2023/01/05 00:37:21;;;;;;;50.67;5.88;;;;;;;9.33;100.00;101593.16;5040192;28;20021;-39
2023/01/05 00:39:47;;;;;;;52.03;6.28;;;;;;;9.31;100.00;101587.91;5050458;28;20446;-38
2023/01/05 00:42:12;;;;;;;60.95;6.47;;;;;;;9.32;100.00;101586.94;5049059;28;20104;-36
2023/01/05 00:44:37;;;;;;;67.40;7.07;;;;;;;9.33;100.00;101583.25;5050563;28;20123;-38
2023/01/05 00:47:03;;;;;;;61.72;5.82;;;;;;;9.33;100.00;101585.94;5032332;28;20029;-39
2023/01/05 00:49:28;;;;;;;55.22;7.07;;;;;;;9.36;100.00;101587.47;5045876;28;20036;-36
2023/01/05 00:51:53;;;;;;;51.83;6.85;;;;;;;9.34;100.00;101595.66;5044673;28;20025;-38
2023/01/05 00:54:19;;;;;;;50.92;6.18;;;;;;;9.33;100.00;101583.25;5050265;28;20021;-37
2023/01/05 00:56:47;;;;;;;49.30;6.35;;;;;;;9.32;100.00;101596.81;5050130;28;20040;-37
2023/01/05 00:59:13;;;;;;;53.00;5.63;;;;;;;9.30;100.00;101599.69;5050191;28;20021;-38
2023/01/05 01:01:38;;;;;;;71.35;7.70;;;;;;;9.29;100.00;101602.50;5050176;28;20029;-36
2023/01/05 01:04:04;;;;;;;53.30;6.35;;;;;;;9.29;100.00;101594.44;5050202;28;20027;-36
2023/01/05 01:06:29;;;;;;;53.80;6.75;;;;;;;9.30;100.00;101614.97;5035725;28;20117;-38
2023/01/05 01:08:54;;;;;;;54.55;7.10;;;;;;;9.27;100.00;101605.38;5030277;28;20086;-36
2023/01/05 01:11:20;;;;;;;55.22;6.38;;;;;;;9.25;100.00;101609.19;5030157;28;20100;-36
2023/01/05 01:13:45;;;;;;;57.72;5.70;;;;;;;9.25;100.00;101626.16;5028517;28;20095;-38
2023/01/05 01:16:12;;;;;;;63.78;6.38;;;;;;;9.22;100.00;101621.94;5028725;28;20078;-39
2023/01/05 01:18:38;;;;;;;56.83;7.20;;;;;;;9.23;100.00;101630.84;5030594;28;20037;-36
2023/01/05 01:21:04;;;;;;;65.53;6.50;;;;;;;9.21;100.00;101624.75;5030374;28;20044;-38
2023/01/05 01:23:30;;;;;;;60.60;5.90;;;;;;;9.19;100.00;101626.78;5030504;28;20030;-35
2023/01/05 01:25:56;;;;;;;53.17;6.00;;;;;;;9.15;100.00;101628.06;5029960;28;20021;-39
2023/01/05 01:28:24;;;;;;;69.38;6.75;;;;;;;9.11;100.00;101632.91;5029701;28;20041;-38
2023/01/05 01:30:49;;;;;;;72.22;6.28;;;;;;;9.09;100.00;101642.13;5029686;28;20033;-39
2023/01/05 01:33:14;;;;;;;52.30;7.80;;;;;;;9.07;100.00;101646.78;5029916;28;20083;-39
2023/01/05 01:35:40;;;;;;;63.90;6.20;;;;;;;9.07;100.00;101657.53;5029983;28;20025;-36
2023/01/05 01:38:05;;;;;;;50.88;5.70;;;;;;;9.07;100.00;101654.84;5030019;28;20024;-38
2023/01/05 01:40:38;;;;;;;48.47;5.57;;;;;;;9.05;100.00;101664.88;5029992;28;20064;-39
2023/01/05 01:43:11;;;;;;;49.13;6.88;;;;;;;9.05;100.00;101638.03;5038132;28;20044;-38
2023/01/05 01:45:37;;;;;;;66.07;7.10;;;;;;;9.08;100.00;101661.91;5053410;28;20033;-39
2023/01/05 01:48:02;;;;;;;65.82;6.70;;;;;;;9.10;100.00;101667.97;5053579;28;20033;-39
2023/01/05 01:50:31;;;;;;;66.63;7.70;;;;;;;9.11;100.00;101665.16;5039070;28;20252;-37
2023/01/05 01:53:01;;;;;;;66.68;7.35;;;;;;;9.11;100.00;101667.81;5032467;28;20113;-37
2023/01/05 01:55:27;;;;;;;57.10;5.70;;;;;;;9.11;100.00;101653.53;5032382;28;20040;-39
2023/01/05 01:57:52;;;;;;;61.75;7.38;;;;;;;9.11;100.00;101665.16;5033104;28;20026;-36
2023/01/05 02:00:18;;;;;;;47.30;6.63;;;;;;;9.09;100.00;101666.28;5033557;28;20025;-39
2023/01/05 02:02:48;;;;;;;70.82;6.35;;;;;;;9.07;100.00;101657.53;5033176;28;20564;-38
2023/01/05 02:05:16;;;;;;;56.38;6.57;;;;;;;9.09;100.00;101677.03;5031907;28;20017;-36
2023/01/05 02:07:45;;;;;;;57.03;6.32;;;;;;;9.06;100.00;101680.00;5031828;28;20493;-37
2023/01/05 02:10:10;;;;;;;56.25;5.00;;;;;;;9.09;100.00;101685.09;5031874;28;20022;-39
2023/01/05 02:12:57;;;;;;;55.35;6.20;;;;;;;9.10;100.00;101684.09;5031156;28;20021;-36
2023/01/05 02:15:43;;;;;;;59.50;5.93;;;;;;;9.08;100.00;101678.00;5048519;28;20024;-38
2023/01/05 02:18:30;;;;;;;55.58;5.38;;;;;;;9.04;100.00;101685.53;5048266;28;20412;-37
2023/01/05 02:21:16;;;;;;;46.25;5.32;;;;;;;9.05;100.00;101681.00;5033208;28;20029;-38
2023/01/05 02:24:20;;;;;;;64.70;6.03;;;;;;;9.04;100.00;101698.13;5031881;28;20022;-39
2023/01/05 02:27:19;;;;;;;51.00;6.18;;;;;;;9.06;100.00;101688.06;5022993;28;20140;-39
2023/01/05 02:30:03;;;;;;;52.40;6.40;;;;;;;9.06;100.00;101693.41;5031208;28;20037;-36
2023/01/05 02:32:54;;;;;;;53.60;6.15;;;;;;;9.11;100.00;101696.50;5031295;28;20057;-39
2023/01/05 02:35:31;;;;;;;68.03;7.28;;;;;;;9.15;100.00;101700.59;5032887;28;20029;-35
2023/01/05 02:38:53;;;;;;;59.87;6.97;;;;;;;9.21;100.00;101699.97;5032459;28;20029;-37
2023/01/05 02:41:32;;;;;;;49.35;5.07;;;;;;;9.26;100.00;101694.16;5030028;28;20276;-38
2023/01/05 02:43:59;;;;;;;51.42;6.05;;;;;;;9.27;100.00;101685.94;5032480;28;20048;-39
2023/01/05 02:46:24;;;;;;;59.50;6.45;;;;;;;9.31;100.00;101692.69;5031048;28;20366;-37
2023/01/05 02:48:52;;;;;;;45.22;5.10;;;;;;;9.33;100.00;101706.81;5032900;28;20457;-36
2023/01/05 02:51:21;;;;;;;48.70;5.75;;;;;;;9.38;100.00;101699.16;5032662;28;20044;-38
2023/01/05 02:53:53;;;;;;;52.40;5.35;;;;;;;9.40;100.00;101694.47;5043773;28;20507;-35
2023/01/05 02:56:30;;;;;;;49.53;6.63;;;;;;;9.42;100.00;101697.81;5048227;28;20029;-36
2023/01/05 02:59:07;;;;;;;47.17;6.50;;;;;;;9.42;100.00;101689.75;5050954;28;20654;-38
2023/01/05 03:01:42;;;;;;;57.00;5.13;;;;;;;9.42;100.00;101689.75;5052384;28;20029;-36
2023/01/05 03:04:13;;;;;;;63.95;6.88;;;;;;;9.44;100.00;101687.78;5050884;28;20361;-37
2023/01/05 03:06:45;;;;;;;60.40;6.05;;;;;;;9.43;100.00;101682.56;5050837;28;20373;-36
2023/01/05 03:09:14;;;;;;;55.45;6.38;;;;;;;9.45;100.00;101684.13;5047641;28;20465;-38
2023/01/05 03:14:36;;;;;;;52.88;6.70;;;;;;;9.44;100.00;101695.84;5050939;28;20503;-38
2023/01/05 03:17:05;;;;;;;56.65;6.93;;;;;;;9.43;100.00;101680.72;5050586;28;20091;-35
2023/01/05 03:19:38;;;;;;;49.15;5.85;;;;;;;9.45;100.00;101672.50;5050470;28;20028;-39
2023/01/05 03:36:17;;;;;;;60.30;5.72;;;;;;;9.35;100.00;101699.47;5030640;28;20052;-39
2023/01/05 03:38:44;;;;;;;55.45;6.63;;;;;;;9.35;100.00;101698.63;5030388;28;20044;-36
2023/01/05 03:41:11;;;;;;;50.35;5.53;;;;;;;9.33;100.00;101692.56;5049186;28;20029;-38
2023/01/05 03:43:37;;;;;;;47.97;6.07;;;;;;;9.32;100.00;101699.78;5051636;28;20025;-36
2023/01/05 03:46:09;;;;;;;70.47;7.13;;;;;;;9.31;100.00;101700.75;5051472;28;20021;-36
2023/01/05 03:48:34;;;;;;;48.20;5.72;;;;;;;9.32;100.00;101693.53;5049667;28;20025;-37
2023/01/05 03:51:00;;;;;;;52.55;5.80;;;;;;;9.31;100.00;101698.06;5029232;28;20120;-38
2023/01/05 03:53:26;;;;;;;50.88;4.80;;;;;;;9.32;100.00;101702.47;5031261;28;20096;-38
2023/01/05 03:55:52;;;;;;;43.83;5.85;;;;;;;9.33;100.00;101705.97;5031429;28;20029;-37
2023/01/05 03:58:17;;;;;;;42.22;5.65;;;;;;;9.29;100.00;101700.06;5030999;28;20092;-36
2023/01/05 04:00:43;;;;;;;60.90;5.95;;;;;;;9.30;100.00;101703.59;5043586;28;20105;-37
2023/01/05 04:03:09;;;;;;;55.35;5.63;;;;;;;9.30;100.00;101704.44;5049515;28;20496;-38
2023/01/05 04:05:35;;;;;;;72.30;8.13;;;;;;;9.30;100.00;101701.75;5034539;28;20079;-36
2023/01/05 04:08:00;;;;;;;69.80;5.55;;;;;;;9.32;100.00;101706.97;5029406;28;20026;-38
2023/01/05 04:10:25;;;;;;;57.78;5.97;;;;;;;9.36;100.00;101706.50;5031138;28;20026;-37
2023/01/05 04:12:51;;;;;;;56.45;5.93;;;;;;;9.37;100.00;101708.22;5031213;28;20038;-38
2023/01/05 04:15:16;;;;;;;55.63;6.22;;;;;;;9.37;100.00;101689.41;5030945;28;20028;-36
2023/01/05 04:17:41;;;;;;;54.40;5.47;;;;;;;9.36;100.00;101698.44;5030657;28;20021;-38
2023/01/05 04:20:07;;;;;;;61.40;6.38;;;;;;;9.36;100.00;101687.69;5030834;28;20155;-38
2023/01/05 04:22:33;;;;;;;65.90;6.78;;;;;;;9.35;100.00;101704.00;5030708;28;20053;-38
2023/01/05 04:24:58;;;;;;;54.83;6.10;;;;;;;9.36;100.00;101706.50;5030960;28;20070;-38
2023/01/05 04:27:23;;;;;;;63.08;7.20;;;;;;;9.36;100.00;101700.28;5030833;28;20064;-38
2023/01/05 04:29:49;;;;;;;57.17;5.97;;;;;;;9.38;100.00;101714.44;5036181;28;20033;-37
2023/01/05 04:32:14;;;;;;;60.60;7.32;;;;;;;9.37;100.00;101710.03;5050714;28;20174;-38
2023/01/05 04:34:39;;;;;;;60.00;6.28;;;;;;;9.37;100.00;101710.03;5031216;28;20034;-36
2023/01/05 04:37:05;;;;;;;52.28;6.78;;;;;;;9.36;100.00;101717.25;5030733;28;20029;-37
2023/01/05 04:39:30;;;;;;;48.78;4.80;;;;;;;9.35;100.00;101723.63;5030454;28;20028;-36
2023/01/05 04:41:55;;;;;;;45.70;5.30;;;;;;;9.30;100.00;101728.63;5037202;28;20052;-36
2023/01/05 04:44:21;;;;;;;63.17;5.93;;;;;;;9.29;100.00;101716.16;5050519;28;20071;-36
2023/01/05 04:46:46;;;;;;;59.95;6.75;;;;;;;9.27;100.00;101726.25;5050577;28;20021;-36
2023/01/05 04:49:11;;;;;;;69.10;6.88;;;;;;;9.27;100.00;101723.56;5050225;28;20071;-39
2023/01/05 04:51:37;;;;;;;57.92;6.43;;;;;;;9.30;100.00;101711.66;5050471;28;20348;-39
2023/01/05 04:54:02;;;;;;;58.38;6.22;;;;;;;9.31;100.00;101724.94;5050409;28;20389;-37
2023/01/05 04:56:28;;;;;;;63.30;7.35;;;;;;;9.34;100.00;101734.53;5042709;28;20087;-38
2023/01/05 04:58:53;;;;;;;59.50;7.03;;;;;;;9.33;100.00;101735.53;5030006;28;20338;-38
2023/01/05 05:01:18;;;;;;;50.58;5.47;;;;;;;9.32;100.00;101736.50;5030252;28;20033;-39
2023/01/05 05:03:44;;;;;;;57.08;6.18;;;;;;;9.29;100.00;101731.44;5030319;28;20057;-39
2023/01/05 05:06:09;;;;;;;74.25;6.80;;;;;;;9.28;100.00;101741.34;5029915;28;20025;-37
2023/01/05 05:08:34;;;;;;;67.63;6.25;;;;;;;9.30;100.00;101739.38;5028844;28;20098;-39
2023/01/05 05:11:00;;;;;;;54.00;6.28;;;;;;;9.28;100.00;101749.41;5039653;28;20033;-37
2023/01/05 05:13:25;;;;;;;48.28;5.07;;;;;;;9.26;100.00;101748.72;5050500;28;20017;-38
2023/01/05 05:15:51;;;;;;;71.85;7.18;;;;;;;9.25;100.00;101757.78;5049846;28;20504;-36
2023/01/05 05:18:16;;;;;;;65.35;5.80;;;;;;;9.26;100.00;101762.13;5049783;28;20021;-39
2023/01/05 05:20:43;;;;;;;74.35;6.95;;;;;;;9.25;100.00;101757.78;5053903;28;20491;-39
2023/01/05 05:23:08;;;;;;;71.05;7.90;;;;;;;9.24;100.00;101753.38;5052727;28;20294;-39
2023/01/05 05:25:34;;;;;;;63.42;6.97;;;;;;;9.26;100.00;101764.81;5052217;28;20480;-39
2023/01/05 05:27:59;;;;;;;65.03;7.22;;;;;;;9.27;100.00;101762.97;5053996;28;20040;-38
2023/01/05 05:30:25;;;;;;;58.63;6.22;;;;;;;9.28;100.00;101778.97;5041195;28;20026;-39
2023/01/05 05:32:50;;;;;;;59.55;6.28;;;;;;;9.29;100.00;101783.31;5033677;28;20481;-37
2023/01/05 05:35:15;;;;;;;60.42;6.15;;;;;;;9.31;100.00;101777.81;5033860;28;20100;-37
2023/01/05 05:37:41;;;;;;;60.35;6.13;;;;;;;9.33;100.00;101782.03;5034250;28;20156;-39
2023/01/05 05:40:07;;;;;;;67.63;8.15;;;;;;;9.36;100.00;101764.78;5047864;28;20048;-39
2023/01/05 05:42:32;;;;;;;52.38;6.10;;;;;;;9.38;100.00;101784.28;5053993;28;20032;-39
2023/01/05 05:44:57;;;;;;;61.58;5.40;;;;;;;9.41;100.00;101783.97;5054457;28;20486;-36
2023/01/05 05:47:23;;;;;;;81.72;9.38;;;;;;;9.40;100.00;101788.50;5053927;28;20158;-37
2023/01/05 05:49:48;;;;;;;66.47;6.20;;;;;;;9.38;100.00;101789.66;5053667;28;20025;-39
2023/01/05 05:52:13;;;;;;;63.35;6.63;;;;;;;9.37;100.00;101783.44;5053951;28;20029;-36
2023/01/05 05:54:39;;;;;;;54.40;6.47;;;;;;;9.38;100.00;101801.25;5053783;28;20025;-36
2023/01/05 05:57:04;;;;;;;67.03;6.78;;;;;;;9.38;100.00;101790.50;5053493;28;20033;-36
2023/01/05 05:59:29;;;;;;;66.10;7.72;;;;;;;9.40;100.00;101785.81;5047267;28;20036;-37
2023/01/05 06:01:55;;;;;;;55.78;5.35;;;;;;;9.37;100.00;101788.81;5033572;28;20036;-39
2023/01/05 06:04:20;;;;;;;65.97;6.80;;;;;;;9.41;100.00;101795.56;5033782;28;20022;-38
2023/01/05 06:06:45;;;;;;;51.78;6.18;;;;;;;9.38;100.00;101795.88;5041599;28;20111;-38
2023/01/05 06:09:11;;;;;;;64.68;6.65;;;;;;;9.38;100.00;101790.50;5053733;28;20025;-39
2023/01/05 06:11:36;;;;;;;46.45;6.10;;;;;;;9.35;100.00;101798.88;5053542;28;20396;-39
2023/01/05 06:14:01;;;;;;;51.78;6.28;;;;;;;9.34;100.00;101799.84;5053495;28;20380;-39
2023/01/05 06:16:27;;;;;;;60.85;6.43;;;;;;;9.34;100.00;101799.00;5053240;28;20020;-39
2023/01/05 06:18:53;;;;;;;52.08;5.45;;;;;;;9.34;100.00;101802.53;5053098;28;20309;-38
2023/01/05 06:21:20;;;;;;;53.38;5.75;;;;;;;9.34;100.00;101804.38;5053021;28;20032;-38
2023/01/05 06:23:45;;;;;;;62.65;7.28;;;;;;;9.33;100.00;101798.16;5053614;28;20053;-39
2023/01/05 06:26:11;;;;;;;66.80;5.95;;;;;;;9.32;100.00;101807.22;5053825;28;20119;-39
2023/01/05 06:28:36;;;;;;;57.42;5.57;;;;;;;9.32;100.00;101817.97;5053411;28;20051;-39
2023/01/05 06:31:01;;;;;;;47.22;5.13;;;;;;;9.29;100.00;101822.78;5034797;28;20025;-39
2023/01/05 06:33:27;;;;;;;47.55;5.47;;;;;;;9.31;100.00;101821.63;5034232;28;20068;-38
2023/01/05 06:35:52;;;;;;;61.63;6.72;;;;;;;9.31;100.00;101827.00;5033184;28;20029;-39
2023/01/05 06:38:17;;;;;;;63.67;8.48;;;;;;;9.34;100.00;101820.50;5033177;28;20033;-38
2023/01/05 06:40:45;;;;;;;52.70;6.28;;;;;;;9.33;100.00;101835.78;5032776;28;20037;-39
2023/01/05 06:43:11;;;;;;;56.47;5.97;;;;;;;9.30;100.00;101838.75;5032855;28;20083;-37
2023/01/05 06:45:36;;;;;;;54.90;6.35;;;;;;;9.29;100.00;101825.47;5032793;28;20037;-36
2023/01/05 06:48:02;;;;;;;55.35;5.78;;;;;;;9.29;100.00;101839.72;5031060;28;20345;-38
2023/01/05 06:50:29;;;;;;;61.05;7.03;;;;;;;9.30;100.00;101846.81;5033046;28;20030;-38
2023/01/05 06:52:54;;;;;;;54.50;6.13;;;;;;;9.27;100.00;101849.81;5032957;28;20036;-39
2023/01/05 06:55:20;;;;;;;55.83;5.85;;;;;;;9.27;100.00;101852.50;5032595;28;20455;-38
2023/01/05 06:57:46;;;;;;;56.55;5.72;;;;;;;9.25;100.00;101853.63;5032698;28;20025;-38
2023/01/05 07:00:12;;;;;;;67.78;5.80;;;;;;;9.21;100.00;101869.19;5032690;28;20099;-39
2023/01/05 07:02:37;;;;;;;55.85;5.75;;;;;;;9.16;100.00;101869.66;5032276;28;20116;-38
2023/01/05 07:05:03;;;;;;;67.25;7.20;;;;;;;9.12;100.00;101870.94;5032370;28;20090;-39
2023/01/05 07:07:28;;;;;;;59.40;5.30;;;;;;;9.08;100.00;101861.44;5032499;28;20040;-37
2023/01/05 07:09:53;;;;;;;54.97;5.00;;;;;;;9.09;100.00;101870.38;5032288;28;20025;-39
2023/01/05 07:12:19;;;;;;;71.18;8.32;;;;;;;9.04;100.00;101870.81;5032297;28;20030;-39
2023/01/05 07:14:44;;;;;;;59.67;5.93;;;;;;;8.99;100.00;101865.88;5032308;28;20111;-39
2023/01/05 07:17:11;;;;;;;65.20;7.07;;;;;;;8.98;100.00;101869.56;5032310;28;20025;-36
2023/01/05 07:19:37;;;;;;;62.65;6.40;;;;;;;8.96;100.00;101873.38;5032324;28;20488;-38
2023/01/05 07:22:02;;;;;;;53.92;5.72;;;;;;;8.93;100.00;101871.84;5031913;28;20033;-38
2023/01/05 07:24:28;;;;;;;55.88;6.47;;;;;;;8.90;100.00;101876.63;5032202;28;20032;-39
2023/01/05 07:26:53;;;;;;;50.78;5.40;;;;;;;8.87;100.00;101874.25;5031885;28;20061;-36
2023/01/05 07:29:18;;;;;;;65.82;6.50;;;;;;;8.84;100.00;101883.44;5031998;28;20018;-39
2023/01/05 07:31:46;;;;;;;62.05;5.90;;;;;;;8.79;100.00;101883.91;5031387;28;20196;-39
2023/01/05 07:34:11;;;;;;;60.95;5.95;;;;;;;8.78;100.00;101886.72;5032113;28;20025;-38
2023/01/05 07:36:37;;;;;;;61.33;7.13;;;;;;;8.75;100.00;101882.47;5031820;28;20056;-36
2023/01/05 07:39:02;;;;;;;57.33;6.78;;;;;;;8.73;100.00;101875.56;5031699;28;20025;-38
2023/01/05 07:41:28;;;;;;;65.72;6.53;;;;;;;8.73;100.00;101883.63;5031176;28;20029;-39
2023/01/05 07:43:53;;;;;;;59.53;6.00;;;;;;;8.73;100.00;101886.28;5031728;28;20068;-39
2023/01/05 07:46:19;;;;;;;63.67;6.50;;;;;;;8.73;100.00;101891.66;5031706;28;20049;-37
2023/01/05 07:48:44;;;;;;;58.05;6.38;;;;;;;8.73;100.00;101897.03;5031437;28;20026;-36
2023/01/05 07:51:10;;;;;;;68.93;6.95;;;;;;;8.74;100.00;101896.03;5031618;28;20084;-35
2023/01/05 07:53:37;;;;;;;58.22;6.35;;;;;;;8.72;100.00;101896.19;5030337;28;20488;-40
2023/01/05 07:56:04;;;;;;;66.60;6.47;;;;;;;8.71;100.00;101904.38;5031104;28;20068;-37
2023/01/05 07:58:30;;;;;;;63.00;7.20;;;;;;;8.71;100.00;101909.75;5031524;28;20052;-40
2023/01/05 08:00:56;;;;;;;85.45;7.57;;;;;;;8.71;100.00;101912.44;5031432;28;20037;-39
2023/01/05 08:03:21;;;;;;;61.28;7.35;;;;;;;8.69;100.00;101914.41;5031414;28;20034;-38
2023/01/05 08:05:47;;;;;;;62.00;7.35;;;;;;;8.69;100.00;101909.03;5031198;28;20025;-40
2023/01/05 08:08:13;;;;;;;70.90;6.53;;;;;;;8.67;100.00;101916.41;5031223;28;20034;-37
2023/01/05 08:10:40;;;;;;;62.38;7.10;;;;;;;8.66;100.00;101925.41;5031280;28;20082;-39
2023/01/05 08:16:11;;;;;;;48.53;6.22;;;;;;;8.73;100.00;101935.44;5008868;28;20481;-37
2023/01/05 08:18:36;;;;;;;55.95;6.30;;;;;;;8.77;100.00;101942.25;5008486;28;20033;-38
2023/01/05 08:21:03;;;;;;;56.53;6.90;;;;;;;8.78;100.00;101943.06;5018243;28;20128;-35
2023/01/05 08:23:29;;;;;;;69.10;7.85;;;;;;;8.83;100.00;101930.06;5029802;28;20138;-38
2023/01/05 08:25:55;;;;;;;61.38;6.78;;;;;;;8.86;100.00;101945.88;5030825;28;20143;-38
2023/01/05 08:28:20;;;;;;;48.47;5.32;;;;;;;8.91;100.00;101945.47;5030806;28;20142;-39
2023/01/05 08:30:46;;;;;;;67.75;6.68;;;;;;;8.94;100.00;101947.84;5050778;28;20388;-38
2023/01/05 08:33:12;;;;;;;61.40;6.75;;;;;;;9.00;100.00;101958.00;5050352;28;20052;-38
2023/01/05 08:35:41;;;;;;;58.83;5.32;;;;;;;9.01;100.00;101960.56;5049308;28;20043;-37
2023/01/05 08:38:07;;;;;;;66.85;6.13;;;;;;;9.05;100.00;101960.28;5050480;28;20511;-38
2023/01/05 08:40:32;;;;;;;58.10;6.80;;;;;;;9.10;100.00;101963.38;5050608;28;20137;-38
2023/01/05 08:42:57;;;;;;;43.90;5.07;;;;;;;9.13;100.00;101963.06;5050839;28;20108;-39
2023/01/05 08:45:23;;;;;;;53.13;5.43;;;;;;;9.15;100.00;101961.09;5049106;28;20388;-37
2023/01/05 08:47:48;;;;;;;61.53;5.07;;;;;;;9.21;100.00;101960.50;5050411;28;20028;-35
2023/01/05 08:50:13;;;;;;;54.13;6.05;;;;;;;9.23;100.00;101969.28;5050459;28;20049;-36
2023/01/05 08:52:39;;;;;;;73.13;6.28;;;;;;;9.23;100.00;101969.28;5050503;28;20403;-38
2023/01/05 08:55:06;;;;;;;64.43;6.22;;;;;;;9.26;100.00;101968.97;5050218;28;20461;-35
2023/01/05 08:57:32;;;;;;;61.45;5.45;;;;;;;9.25;100.00;101972.66;5050492;28;20512;-38
2023/01/05 08:59:58;;;;;;;58.45;6.20;;;;;;;9.27;100.00;101965.31;5034131;28;20017;-38
2023/01/05 09:02:23;;;;;;;58.15;5.60;;;;;;;9.30;100.00;101965.03;5030488;28;20091;-38
2023/01/05 09:04:48;;;;;;;50.88;7.43;;;;;;;9.34;100.00;101965.56;5030082;28;20491;-39
2023/01/05 09:07:14;;;;;;;59.25;5.82;;;;;;;9.38;100.00;101967.81;5030895;28;20500;-36
2023/01/05 09:09:39;;;;;;;51.75;6.35;;;;;;;9.44;100.00;101971.75;5030391;28;20033;-38
2023/01/05 09:12:05;;;;;;;53.72;4.95;;;;;;;9.44;100.00;101986.03;5030549;28;20057;-37
2023/01/05 09:14:30;;;;;;;63.72;7.57;;;;;;;9.48;100.00;101983.03;5030570;28;20053;-36
2023/01/05 09:16:55;;;;;;;44.47;6.00;;;;;;;9.51;100.00;101980.94;5030250;28;20018;-38
2023/01/05 09:19:21;;;;;;;59.35;5.68;;;;;;;9.57;100.00;101976.81;5030138;28;20025;-39
2023/01/05 09:21:46;;;;;;;70.93;8.43;;;;;;;9.60;100.00;101992.63;5029049;28;20396;-39
2023/01/05 09:24:12;;;;;;;55.25;6.30;;;;;;;9.69;100.00;101983.69;5029998;28;20079;-39
2023/01/05 09:26:37;;;;;;;61.67;6.28;;;;;;;9.79;100.00;101984.47;5030249;28;20030;-39
2023/01/05 09:29:03;;;;;;;52.85;5.15;;;;;;;9.81;100.00;101985.19;5038009;28;20029;-37
2023/01/05 09:31:28;;;;;;;67.28;7.07;;;;;;;9.92;100.00;101985.97;5049964;28;20128;-37
2023/01/05 09:33:55;;;;;;;66.15;7.35;;;;;;;9.93;100.00;101985.00;5050188;28;20063;-39
2023/01/05 09:36:21;;;;;;;55.25;5.90;;;;;;;9.96;100.00;101982.00;5048648;28;20476;-39
2023/01/05 09:38:50;;;;;;;53.38;5.97;;;;;;;9.97;100.00;101986.38;5049686;28;20086;-39
2023/01/05 09:41:49;;;;;;;48.17;5.90;;;;;;;9.95;100.00;101988.38;5050384;28;20013;-39
2023/01/05 09:44:29;;;;;;;58.35;6.03;;;;;;;9.97;100.00;101989.06;5047509;28;20120;-38
2023/01/05 09:46:58;;;;;;;53.97;6.28;;;;;;;9.99;100.00;102000.53;5049895;28;20052;-39
2023/01/05 09:49:24;;;;;;;70.18;7.78;;;;;;;9.98;100.00;102005.06;5049706;28;20032;-37
2023/01/05 09:51:54;;;;;;;58.58;5.20;;;;;;;10.02;100.00;102014.50;5049931;28;20234;-37
2023/01/05 09:54:21;;;;;;;57.15;6.55;;;;;;;9.99;100.00;102016.66;5049983;28;20021;-39
2023/01/05 09:56:48;;;;;;;50.58;7.15;;;;;;;10.04;100.00;102012.53;5048478;28;20025;-39
2023/01/05 09:59:17;;;;;;;64.05;6.88;;;;;;;10.06;100.00;102025.84;5048707;28;20033;-39
2023/01/05 10:01:44;;;;;;;69.60;6.53;;;;;;;10.18;100.00;102035.38;5049686;28;20082;-36
2023/01/05 10:04:21;;;;;;;56.33;6.70;;;;;;;10.28;100.00;102030.81;5048552;28;20036;-39
2023/01/05 10:06:51;;;;;;;64.85;6.22;;;;;;;10.37;100.00;102022.84;5052109;28;20421;-39
2023/01/05 10:09:20;;;;;;;60.95;6.90;;;;;;;10.38;100.00;102021.84;5053613;28;20071;-38
2023/01/05 10:14:45;;;;;;;60.55;7.30;;;;;;;10.37;100.00;102026.38;5053478;28;20044;-39
2023/01/05 10:17:17;;;;;;;61.03;7.38;;;;;;;10.47;100.00;102019.09;5053521;28;20036;-39
2023/01/05 10:19:43;;;;;;;65.53;7.45;;;;;;;10.44;100.00;102021.25;5053239;28;20121;-38
2023/01/05 10:22:26;;;;;;;63.67;7.25;;;;;;;10.40;100.00;102011.75;5051753;28;20056;-39
2023/01/05 10:24:55;;;;;;;60.33;6.60;;;;;;;10.44;100.00;102026.63;5052976;28;20301;-39
2023/01/05 10:27:28;;;;;;;62.05;7.13;;;;;;;10.39;100.00;102020.84;5052764;28;20090;-36
2023/01/05 10:30:21;;;;;;;67.72;7.38;;;;;;;10.50;100.00;102023.31;5034899;28;20025;-38
2023/01/05 10:33:01;;;;;;;71.22;7.35;;;;;;;10.55;100.00;102029.94;5031442;28;20045;-36
2023/01/05 10:35:38;;;;;;;54.58;6.70;;;;;;;10.59;100.00;102033.19;5014924;28;20057;-37
2023/01/05 10:38:26;;;;;;;72.10;8.38;;;;;;;10.50;100.00;102026.00;5032745;28;20026;-37
2023/01/05 10:40:56;;;;;;;;;;;;;;;10.59;100.00;102029.66;5031774;28;20048;-38
2023/01/05 10:43:30;;;;;;;53.20;5.55;;;;;;;10.81;100.00;102033.72;5031206;28;19908;-39
2023/01/05 10:45:56;;;;;;;70.65;6.85;;;;;;;11.04;100.00;102031.41;5032821;28;20108;-39
2023/01/05 10:48:26;;;;;;;63.25;6.65;;;;;;;11.46;100.00;102031.53;5031328;28;20520;-36
2023/01/05 10:50:53;;;;;;;56.55;6.43;;;;;;;11.58;100.00;102019.47;5031259;28;20037;-39
2023/01/05 10:53:26;;;;;;;61.60;8.82;;;;;;;11.60;100.00;102022.84;5031187;28;20104;-39
2023/01/05 10:56:05;;;;;;;62.50;7.03;;;;;;;11.55;100.00;102009.00;5032231;28;20536;-38
2023/01/05 10:58:33;;;;;;;57.85;7.68;;;;;;;11.35;100.00;102004.84;5032631;28;20032;-40
2023/01/05 11:01:04;;;;;;;62.83;7.10;;;;;;;11.36;100.00;102012.78;5030775;28;20100;-38
2023/01/05 11:03:41;;;;;;;66.03;7.30;;;;;;;11.56;100.00;102007.19;5032414;28;20068;-40
2023/01/05 11:06:08;;;;;;;55.23;6.93;;;;;;;11.66;100.00;102005.19;5030851;28;20079;-39
2023/01/05 11:08:33;;;;;;;61.72;7.10;;;;;;;11.93;100.00;102006.88;5031271;28;20432;-37
2023/01/05 11:11:01;;;;;;;55.08;7.72;;;;;;;12.21;100.00;102007.47;5032111;28;20021;-39
2023/01/05 11:13:31;;;;;;;56.30;7.18;;;;;;;12.45;100.00;101995.91;5032274;28;20112;-40
2023/01/05 11:16:06;;;;;;;58.03;7.07;;;;;;;12.86;100.00;101987.81;5031519;28;20049;-39
2023/01/05 11:18:39;;;;;;;55.15;7.60;;;;;;;12.95;100.00;101986.81;5031618;28;20131;-40
2023/01/05 11:21:14;;;;;;;47.25;5.82;;;;;;;13.05;100.00;101983.09;5031859;28;20061;-37
2023/01/05 11:23:48;;;;;;;70.95;7.53;;;;;;;13.26;100.00;101985.25;5030836;28;20025;-39
2023/01/05 11:26:22;;;;;;;56.90;6.63;;;;;;;13.33;100.00;101976.31;5031944;28;20033;-40
2023/01/05 11:29:10;;;;;;;58.63;6.13;;;;;;;13.49;100.00;101978.13;5032156;28;20033;-39
2023/01/05 11:31:41;;;;;;;;;;;;;;;13.79;100.00;101967.53;5046325;28;20093;-40
2023/01/05 11:34:33;;;;;;;54.67;7.25;;;;;;;13.45;100.00;101973.25;5051792;28;20264;-38
2023/01/05 11:37:10;;;;;;;55.88;6.25;;;;;;;13.38;100.00;101970.41;5048106;28;20033;-36
2023/01/05 11:39:45;;;;;;;56.00;6.57;;;;;;;13.77;100.00;101965.03;5049677;28;20041;-36
2023/01/05 11:42:15;;;;;;;55.72;6.63;;;;;;;13.75;100.00;101972.47;5051497;28;20029;-38
2023/01/05 11:44:47;;;;;;;63.88;7.43;;;;;;;13.48;100.00;101972.88;5051858;28;20108;-39
2023/01/05 11:47:29;;;;;;;54.42;6.47;;;;;;;13.54;100.00;101970.34;5051696;28;20029;-39
2023/01/05 11:50:23;;;;;;;50.50;6.18;;;;;;;13.52;100.00;101972.38;5049949;28;20039;-37
2023/01/05 11:52:52;;;;;;;66.65;7.63;;;;;;;13.76;100.00;101971.44;5050201;28;20029;-38
2023/01/05 11:55:30;;;;;;;57.65;6.75;;;;;;;13.50;100.00;101968.16;5051423;28;20025;-39
2023/01/05 11:58:19;;;;;;;59.65;7.47;;;;;;;13.56;100.00;101971.03;5051229;28;20036;-37
2023/01/05 12:01:00;;;;;;;53.42;7.10;;;;;;;13.23;100.00;101972.91;5045033;28;20112;-38